METAR Data
IDs: Format: Raw Decoded Include TAF

Data at: 0020 UTC 30 May 2020

METAR for:KFME (Fort Meade/Tipton Fl, MD, US)
Text:KFME 300015Z AUTO 21009KT 10SM CLR 25/21 A2993 RMK AO1
Temperature: 25.0°C ( 77°F)
Dewpoint: 21.0°C ( 70°F) [RH = 79%]
Pressure (altimeter):29.93 inches Hg (1013.6 mb)
Winds:from the SSW (210 degrees) at 10 MPH (9 knots; 4.6 m/s)
Visibility:10 or more sm (16+ km)
Ceiling:at least 12,000 feet AGL
Clouds:sky clear below 12,000 feet AGL
QC Flag:automated observation with no human augmentation